Time;durP1;ratioP1;P1;durP2;ratioP2;P2;SDS_P1;SDS_P2;PMS_P1;PMS_P2;Temp;Humidity;BMP_temperature;BMP_pressure;BME280_temperature;BME280_humidity;BME280_pressure;Samples;Min_cycle;Max_cycle;Signal;HPM_P1;HPM_P2
2022/12/05 00:00:00;;;;;;;21.43;11.27;;;3.30;99.90;;;;;;5012825;28;20196;-71
2022/12/05 00:02:25;;;;;;;22.80;12.70;;;3.30;99.90;;;;;;4995480;28;20208;-71
2022/12/05 00:04:51;;;;;;;24.90;12.00;;;3.20;99.90;;;;;;4993358;28;20188;-71
2022/12/05 00:07:16;;;;;;;28.27;12.80;;;3.20;99.90;;;;;;4993389;28;20297;-72
2022/12/05 00:09:42;;;;;;;23.87;11.90;;;3.20;99.90;;;;;;4993005;28;20556;-71
2022/12/05 00:12:07;;;;;;;27.73;12.40;;;3.20;99.90;;;;;;4992754;28;20213;-72
2022/12/05 00:14:33;;;;;;;24.90;13.17;;;3.20;99.90;;;;;;4973829;28;20190;-72
2022/12/05 00:16:58;;;;;;;24.67;11.60;;;3.10;99.90;;;;;;4991424;28;20181;-72
2022/12/05 00:19:24;;;;;;;24.17;11.00;;;3.10;99.90;;;;;;4991028;28;20183;-71
2022/12/05 00:21:49;;;;;;;22.10;10.97;;;3.10;99.90;;;;;;4991098;28;20266;-71
2022/12/05 00:24:15;;;;;;;28.40;12.70;;;3.10;99.90;;;;;;4991184;28;20681;-72
2022/12/05 00:26:41;;;;;;;24.97;12.50;;;3.20;99.90;;;;;;4991054;28;20657;-72
2022/12/05 00:29:07;;;;;;;24.93;13.07;;;3.20;99.90;;;;;;4992138;28;20176;-72
2022/12/05 00:31:33;;;;;;;23.50;12.40;;;3.20;99.90;;;;;;4992507;28;20837;-72
2022/12/05 00:34:00;;;;;;;26.10;12.37;;;3.20;99.90;;;;;;4992912;28;20183;-72
2022/12/05 00:36:29;;;;;;;26.10;12.70;;;3.20;99.90;;;;;;4992785;28;20185;-72
2022/12/05 00:38:55;;;;;;;31.80;12.80;;;3.20;99.90;;;;;;4992709;28;20417;-72
2022/12/05 00:41:23;;;;;;;21.93;11.50;;;3.20;99.90;;;;;;4992641;28;20542;-72
2022/12/05 00:43:49;;;;;;;22.43;13.23;;;3.20;99.90;;;;;;4992559;28;20469;-72
2022/12/05 00:46:18;;;;;;;29.40;13.10;;;3.20;99.90;;;;;;4992771;28;20424;-72
2022/12/05 00:48:44;;;;;;;30.83;14.47;;;3.20;99.90;;;;;;4992585;28;20410;-72
2022/12/05 00:51:12;;;;;;;25.00;13.10;;;3.20;99.90;;;;;;4992258;28;20835;-72
2022/12/05 00:53:38;;;;;;;21.27;11.80;;;3.20;99.90;;;;;;4975052;28;20486;-73
2022/12/05 00:56:09;;;;;;;27.13;12.40;;;3.30;99.90;;;;;;4992407;28;20426;-72
2022/12/05 00:58:35;;;;;;;25.03;12.17;;;3.20;99.90;;;;;;4992408;28;20492;-72
2022/12/05 01:01:10;;;;;;;25.93;12.73;;;3.20;99.90;;;;;;4992230;28;20484;-71
2022/12/05 01:03:36;;;;;;;29.07;13.30;;;3.20;99.90;;;;;;4992229;28;20466;-71
2022/12/05 01:06:02;;;;;;;27.57;14.03;;;3.20;99.90;;;;;;4992264;28;20479;-72
2022/12/05 01:08:28;;;;;;;30.20;12.90;;;3.20;99.90;;;;;;4992301;28;20679;-72
2022/12/05 01:10:55;;;;;;;23.77;13.03;;;3.20;99.90;;;;;;4991847;28;20181;-72
2022/12/05 01:13:21;;;;;;;23.77;13.57;;;3.20;99.90;;;;;;4992282;28;20414;-74
2022/12/05 01:15:47;;;;;;;24.33;12.90;;;3.20;99.90;;;;;;4991645;28;20429;-73
2022/12/05 01:18:12;;;;;;;32.20;13.93;;;3.20;99.90;;;;;;4992216;28;20403;-71
2022/12/05 01:20:39;;;;;;;22.37;11.67;;;3.20;99.90;;;;;;4991735;28;20210;-72
2022/12/05 01:23:05;;;;;;;23.47;12.50;;;3.20;99.90;;;;;;4992157;28;20210;-71
2022/12/05 01:25:30;;;;;;;28.73;12.83;;;3.30;99.90;;;;;;4992975;28;20809;-72
2022/12/05 01:27:56;;;;;;;26.87;12.10;;;3.30;99.90;;;;;;4993300;28;20202;-71
2022/12/05 01:30:22;;;;;;;27.17;12.37;;;3.20;99.90;;;;;;4991967;28;20180;-71
2022/12/05 01:32:47;;;;;;;24.63;12.70;;;3.20;99.90;;;;;;4991711;28;20221;-72
2022/12/05 01:35:13;;;;;;;27.17;12.43;;;3.30;99.90;;;;;;4992232;28;20178;-72
2022/12/05 01:37:38;;;;;;;27.93;12.60;;;3.30;99.90;;;;;;4991836;28;20180;-73
2022/12/05 01:40:05;;;;;;;27.50;12.03;;;3.20;99.90;;;;;;4991811;28;20208;-72
2022/12/05 01:42:30;;;;;;;24.60;12.17;;;3.20;99.90;;;;;;4991749;28;20208;-72
2022/12/05 01:45:03;;;;;;;22.97;11.43;;;3.30;99.90;;;;;;4991856;28;20414;-71
2022/12/05 01:47:31;;;;;;;24.80;11.13;;;3.30;99.90;;;;;;4991882;28;20551;-72
2022/12/05 01:49:58;;;;;;;23.20;11.03;;;3.20;99.90;;;;;;4991743;28;20417;-72
2022/12/05 01:52:26;;;;;;;17.70;10.97;;;3.30;99.90;;;;;;4991855;28;20813;-72
2022/12/05 01:54:55;;;;;;;22.50;11.50;;;3.20;99.90;;;;;;4991733;28;20794;-72
2022/12/05 01:57:22;;;;;;;21.90;11.00;;;3.20;99.90;;;;;;4991963;28;20406;-72
2022/12/05 01:59:54;;;;;;;23.00;10.87;;;3.20;99.90;;;;;;4991443;28;20487;-72
2022/12/05 03:33:22;;;;;;;21.03;10.37;;;3.20;99.90;;;;;;5184197;23;20470;-70
2022/12/05 03:36:14;;;;;;;20.43;9.57;;;3.20;99.90;;;;;;5072570;28;20395;-71
2022/12/05 03:38:52;;;;;;;20.07;9.60;;;3.20;99.90;;;;;;5062496;28;20412;-70
2022/12/05 03:41:41;;;;;;;18.37;10.37;;;3.20;99.90;;;;;;5064210;28;20415;-70
2022/12/05 03:44:15;;;;;;;20.03;8.83;;;3.30;99.90;;;;;;5047812;28;20547;-69
2022/12/05 03:46:51;;;;;;;18.43;10.20;;;3.30;99.90;;;;;;5052831;28;20435;-70
2022/12/05 03:49:26;;;;;;;21.23;11.00;;;3.30;99.90;;;;;;5052768;28;20433;-70
2022/12/05 03:52:01;;;;;;;20.67;10.00;;;3.30;99.90;;;;;;5052842;28;20437;-71
2022/12/05 03:54:33;;;;;;;24.00;10.00;;;3.40;99.90;;;;;;5052502;28;20422;-70
2022/12/05 03:57:24;;;;;;;18.20;11.07;;;3.40;99.90;;;;;;5034938;28;20425;-71
2022/12/05 03:59:56;;;;;;;24.60;10.20;;;3.40;99.90;;;;;;5052566;28;20509;-72
2022/12/05 04:02:48;;;;;;;22.53;10.33;;;3.40;99.90;;;;;;5052490;28;20835;-71
2022/12/05 04:05:22;;;;;;;20.13;11.37;;;3.50;99.90;;;;;;4997766;28;20412;-70
2022/12/05 04:08:23;;;;;;;21.90;11.27;;;3.40;99.90;;;;;;5052813;28;20413;-71
2022/12/05 04:10:52;;;;;;;19.80;9.77;;;3.50;99.90;;;;;;5052142;28;20428;-70
2022/12/05 04:13:32;;;;;;;21.10;10.60;;;3.50;99.90;;;;;;5034986;28;20404;-70
2022/12/05 04:18:57;;;;;;;20.47;10.90;;;3.40;99.90;;;;;;5052820;28;20912;-71
2022/12/05 04:21:39;;;;;;;25.80;12.47;;;3.40;99.90;;;;;;5051643;28;20917;-71
2022/12/05 04:27:23;;;;;;;22.23;10.57;;;3.40;99.90;;;;;;5052287;28;20436;-71
2022/12/05 04:30:10;;;;;;;22.80;10.20;;;3.40;99.90;;;;;;5051945;28;20409;-71
2022/12/05 04:32:50;;;;;;;26.20;11.13;;;3.40;99.90;;;;;;5051739;28;20421;-71
2022/12/05 04:35:23;;;;;;;21.90;10.07;;;3.40;99.90;;;;;;5051753;28;20431;-71
2022/12/05 04:37:53;;;;;;;20.93;10.07;;;3.30;99.90;;;;;;5052015;28;20500;-71
2022/12/05 04:40:34;;;;;;;25.13;10.00;;;3.30;99.90;;;;;;5051665;28;21013;-71
2022/12/05 04:43:01;;;;;;;23.50;11.90;;;3.30;99.90;;;;;;5051924;28;20449;-72
2022/12/05 04:45:29;;;;;;;26.17;12.63;;;3.30;99.90;;;;;;5051529;28;20421;-71
2022/12/05 04:47:58;;;;;;;29.53;11.20;;;3.40;99.90;;;;;;5051734;28;20764;-71
2022/12/05 04:50:29;;;;;;;19.53;10.80;;;3.30;99.90;;;;;;5050647;28;20421;-72
2022/12/05 04:52:56;;;;;;;26.90;11.33;;;3.30;99.90;;;;;;5051781;28;20904;-71
2022/12/05 04:55:25;;;;;;;23.40;11.40;;;3.30;99.90;;;;;;5051441;28;20387;-72
2022/12/05 04:58:04;;;;;;;19.80;11.40;;;3.30;99.90;;;;;;5051538;28;20809;-72
2022/12/05 05:00:31;;;;;;;26.10;11.80;;;3.40;99.90;;;;;;5051406;28;20423;-72
2022/12/05 05:03:09;;;;;;;19.70;10.47;;;3.40;99.90;;;;;;5051300;28;20442;-72
2022/12/05 05:05:37;;;;;;;23.80;10.30;;;3.50;99.90;;;;;;5051217;28;20398;-72
2022/12/05 05:08:03;;;;;;;23.30;11.80;;;3.40;99.90;;;;;;5051503;28;20530;-71
2022/12/05 05:10:43;;;;;;;24.90;11.97;;;3.50;99.90;;;;;;5049259;28;20423;-71
2022/12/05 05:13:08;;;;;;;25.67;11.40;;;3.50;99.90;;;;;;5031540;28;20635;-72
2022/12/05 05:15:34;;;;;;;19.83;11.03;;;3.50;99.90;;;;;;5031460;28;20392;-71
2022/12/05 05:17:59;;;;;;;25.37;11.30;;;3.50;99.90;;;;;;5031532;28;20187;-72
2022/12/05 05:20:28;;;;;;;21.10;10.00;;;3.50;99.90;;;;;;5031132;28;20197;-71
2022/12/05 05:22:56;;;;;;;23.93;10.90;;;3.50;99.90;;;;;;5031436;28;20213;-72
2022/12/05 05:25:23;;;;;;;25.73;12.97;;;3.50;99.90;;;;;;5031258;28;20434;-72
2022/12/05 05:27:53;;;;;;;25.87;12.10;;;3.50;99.90;;;;;;5031266;28;20389;-71
2022/12/05 05:30:21;;;;;;;23.43;11.73;;;3.50;99.90;;;;;;5012747;28;20455;-72
2022/12/05 05:32:46;;;;;;;25.37;11.63;;;3.60;99.90;;;;;;5031114;28;20480;-71
2022/12/05 05:35:13;;;;;;;21.20;11.90;;;3.60;99.90;;;;;;5032129;28;20427;-72
2022/12/05 05:37:39;;;;;;;21.93;12.00;;;3.70;99.90;;;;;;5032028;28;20706;-72
2022/12/05 05:40:11;;;;;;;20.00;10.63;;;3.70;99.90;;;;;;5031307;28;20393;-72
2022/12/05 05:42:48;;;;;;;25.00;11.00;;;3.70;99.90;;;;;;5031105;28;20442;-72
2022/12/05 05:45:14;;;;;;;23.30;12.03;;;3.70;99.90;;;;;;5030949;28;20437;-71
2022/12/05 05:47:41;;;;;;;25.80;12.83;;;3.80;99.90;;;;;;5013383;28;20403;-71
2022/12/05 05:50:07;;;;;;;22.23;9.50;;;3.80;99.90;;;;;;5030771;28;20498;-70
2022/12/05 05:52:34;;;;;;;20.80;11.17;;;3.70;99.90;;;;;;5013265;28;20445;-71
2022/12/05 05:55:00;;;;;;;22.80;10.90;;;3.80;99.90;;;;;;5031132;28;20397;-71
2022/12/05 05:57:25;;;;;;;24.40;12.90;;;3.80;99.90;;;;;;5031009;28;20501;-71
2022/12/05 05:59:51;;;;;;;23.00;11.97;;;3.80;99.90;;;;;;5030977;28;20556;-71
2022/12/05 06:02:16;;;;;;;24.77;10.60;;;3.80;99.90;;;;;;5032317;28;20286;-71
2022/12/05 06:04:42;;;;;;;24.90;11.37;;;3.90;99.90;;;;;;5034814;28;20357;-71
2022/12/05 06:07:07;;;;;;;19.30;9.40;;;3.90;99.90;;;;;;5034828;28;20282;-70
2022/12/05 06:09:33;;;;;;;18.63;11.60;;;3.90;99.90;;;;;;5034727;28;20187;-72
2022/12/05 06:11:58;;;;;;;21.97;12.30;;;3.90;99.90;;;;;;5035087;28;20203;-72
2022/12/05 06:14:24;;;;;;;23.50;12.07;;;3.90;99.90;;;;;;5031201;28;20190;-72
2022/12/05 06:16:50;;;;;;;24.80;10.67;;;3.90;99.90;;;;;;5053889;28;20547;-72
2022/12/05 06:19:15;;;;;;;21.43;11.90;;;3.90;99.90;;;;;;5060187;28;20187;-72
2022/12/05 06:21:41;;;;;;;21.43;10.60;;;3.90;99.90;;;;;;5064947;28;20206;-72
2022/12/05 06:24:06;;;;;;;22.83;11.03;;;3.90;99.90;;;;;;5065082;28;20203;-71
2022/12/05 06:26:32;;;;;;;22.30;12.10;;;3.90;99.90;;;;;;5074438;28;20181;-72
2022/12/05 06:28:58;;;;;;;25.20;12.30;;;3.90;99.90;;;;;;5074544;28;20420;-72
2022/12/05 06:31:27;;;;;;;23.73;12.07;;;4.00;99.90;;;;;;5073868;28;20210;-72
2022/12/05 06:33:53;;;;;;;25.13;12.00;;;4.00;99.90;;;;;;5074630;28;20176;-73
2022/12/05 06:36:20;;;;;;;23.33;11.57;;;4.00;99.90;;;;;;5064268;28;20499;-72
2022/12/05 06:38:46;;;;;;;22.10;12.20;;;4.00;99.90;;;;;;5048919;28;20184;-73
2022/12/05 06:41:18;;;;;;;23.60;11.43;;;4.00;99.90;;;;;;5048578;28;20970;-73
2022/12/05 06:43:44;;;;;;;18.13;10.70;;;4.00;99.90;;;;;;5053360;28;20458;-73
2022/12/05 06:46:11;;;;;;;23.10;11.57;;;4.10;99.90;;;;;;5052423;28;20413;-74
2022/12/05 06:48:37;;;;;;;34.03;12.93;;;4.10;99.90;;;;;;5052390;28;20393;-72
2022/12/05 06:51:03;;;;;;;20.70;10.40;;;4.10;99.90;;;;;;5052350;28;20415;-71
2022/12/05 06:53:29;;;;;;;21.57;10.37;;;4.20;99.90;;;;;;5052834;28;20221;-72
2022/12/05 06:55:59;;;;;;;21.73;11.23;;;4.20;99.90;;;;;;5054174;28;20395;-72
2022/12/05 06:58:25;;;;;;;22.00;11.97;;;4.20;99.90;;;;;;5053772;28;20171;-72
2022/12/05 07:03:36;;;;;;;17.07;10.80;;;4.10;99.90;;;;;;5034251;28;20219;-71
2022/12/05 07:06:04;;;;;;;20.50;10.20;;;4.10;99.90;;;;;;5033863;28;20390;-72
2022/12/05 07:08:31;;;;;;;19.03;10.17;;;4.10;99.90;;;;;;5035079;28;20195;-71
2022/12/05 07:10:56;;;;;;;17.07;10.70;;;4.10;99.90;;;;;;5034620;28;20428;-71
2022/12/05 07:13:22;;;;;;;19.43;10.63;;;4.20;99.90;;;;;;5000346;28;20413;-70
2022/12/05 07:15:49;;;;;;;18.83;9.83;;;4.20;99.90;;;;;;5034825;28;20257;-70
2022/12/05 07:18:15;;;;;;;13.90;8.53;;;4.10;99.90;;;;;;5016604;28;20196;-70
2022/12/05 07:20:42;;;;;;;15.07;9.80;;;4.20;99.90;;;;;;5034449;28;20447;-70
2022/12/05 07:23:08;;;;;;;19.00;9.63;;;4.10;99.90;;;;;;5033907;28;20506;-70
2022/12/05 07:25:39;;;;;;;17.30;9.93;;;4.20;99.90;;;;;;5034343;28;20501;-72
2022/12/05 07:28:05;;;;;;;19.87;11.20;;;4.20;99.90;;;;;;5034394;28;20381;-71
2022/12/05 07:30:31;;;;;;;20.70;10.70;;;4.20;99.90;;;;;;5033351;28;20393;-71
2022/12/05 07:32:57;;;;;;;14.80;10.17;;;4.20;99.90;;;;;;5033759;28;20427;-70
2022/12/05 07:35:23;;;;;;;17.00;9.37;;;4.20;99.90;;;;;;5016049;28;20522;-71
2022/12/05 07:37:48;;;;;;;19.03;9.37;;;4.30;99.90;;;;;;5033989;28;20477;-70
2022/12/05 07:40:14;;;;;;;16.87;9.80;;;4.30;99.90;;;;;;5015509;28;20395;-68
2022/12/05 07:42:40;;;;;;;22.00;10.03;;;4.30;99.90;;;;;;5033391;28;20236;-70
2022/12/05 07:45:06;;;;;;;17.07;10.30;;;4.30;99.90;;;;;;5015774;28;20183;-69
2022/12/05 07:47:32;;;;;;;20.30;14.10;;;4.30;99.90;;;;;;5033545;28;20259;-71
2022/12/05 07:49:58;;;;;;;28.60;17.13;;;4.40;99.90;;;;;;5033307;28;20647;-71
2022/12/05 07:52:24;;;;;;;17.90;9.67;;;4.50;99.90;;;;;;5032904;28;20858;-70
2022/12/05 07:54:50;;;;;;;19.27;10.47;;;4.50;99.90;;;;;;5015607;28;20411;-69
2022/12/05 07:57:16;;;;;;;19.10;10.30;;;4.60;99.90;;;;;;5032956;28;20423;-70
2022/12/05 07:59:41;;;;;;;17.40;10.00;;;4.60;99.90;;;;;;5033074;28;20343;-69
2022/12/05 08:02:08;;;;;;;19.50;9.93;;;4.70;99.90;;;;;;5015351;28;20194;-70
2022/12/05 08:04:33;;;;;;;19.93;10.97;;;4.70;99.90;;;;;;5032914;28;20235;-70
2022/12/05 08:06:59;;;;;;;20.23;10.73;;;4.70;99.90;;;;;;5032565;28;20419;-71
2022/12/05 08:09:25;;;;;;;17.93;10.30;;;4.70;99.90;;;;;;5032582;28;20255;-71
2022/12/05 08:11:50;;;;;;;22.50;10.70;;;4.80;99.90;;;;;;5014647;28;20282;-71
2022/12/05 08:14:16;;;;;;;20.57;9.33;;;4.80;99.90;;;;;;5032533;28;20324;-71
2022/12/05 08:16:41;;;;;;;21.67;11.40;;;4.80;99.90;;;;;;5032530;28;20182;-71
2022/12/05 08:19:09;;;;;;;21.47;11.17;;;4.80;99.90;;;;;;5031033;28;20240;-69
2022/12/05 08:21:35;;;;;;;19.73;10.80;;;5.00;99.90;;;;;;5030735;28;20670;-71
2022/12/05 08:24:04;;;;;;;17.03;10.30;;;4.90;99.90;;;;;;5031010;28;20437;-71
2022/12/05 08:26:30;;;;;;;19.50;11.83;;;4.90;99.90;;;;;;5030538;28;20275;-71
2022/12/05 08:28:57;;;;;;;17.03;11.23;;;4.90;99.90;;;;;;5030873;28;20411;-70
2022/12/05 08:31:24;;;;;;;20.30;10.87;;;4.90;99.90;;;;;;5030259;28;20503;-69
2022/12/05 08:33:51;;;;;;;18.10;10.10;;;4.90;99.90;;;;;;5030945;28;21017;-71
2022/12/05 08:36:17;;;;;;;16.20;10.07;;;5.00;99.90;;;;;;5031510;28;20439;-71
2022/12/05 08:38:45;;;;;;;18.43;10.37;;;5.00;99.90;;;;;;5032106;28;20453;-70
2022/12/05 08:41:13;;;;;;;16.23;10.67;;;5.00;99.90;;;;;;5029714;28;20843;-70
2022/12/05 08:43:39;;;;;;;17.10;10.47;;;5.00;99.90;;;;;;5030871;28;20518;-70
2022/12/05 08:46:05;;;;;;;12.67;9.87;;;5.10;99.90;;;;;;5031011;28;20416;-70
2022/12/05 08:48:31;;;;;;;13.53;7.77;;;5.10;99.90;;;;;;5031215;28;20178;-71
2022/12/05 08:50:58;;;;;;;17.97;8.87;;;5.10;99.90;;;;;;5030227;28;20400;-70
2022/12/05 08:53:25;;;;;;;19.60;10.37;;;5.10;99.90;;;;;;5030917;28;20395;-70
2022/12/05 08:55:50;;;;;;;19.60;9.80;;;5.10;99.90;;;;;;5029885;28;20390;-70
2022/12/05 08:58:16;;;;;;;16.60;10.20;;;5.10;99.90;;;;;;5030595;28;20397;-70
2022/12/05 09:00:42;;;;;;;18.30;9.80;;;5.00;99.90;;;;;;5029809;28;20274;-71
2022/12/05 09:03:10;;;;;;;13.57;9.50;;;5.00;99.90;;;;;;5030465;28;20364;-68
2022/12/05 09:05:35;;;;;;;17.20;8.90;;;5.10;99.90;;;;;;5030181;28;20386;-71
2022/12/05 09:08:01;;;;;;;13.00;8.90;;;5.10;99.90;;;;;;5030240;28;20427;-71
2022/12/05 09:10:26;;;;;;;10.90;8.03;;;5.20;99.90;;;;;;5030061;28;20216;-70
2022/12/05 09:12:52;;;;;;;15.73;9.30;;;5.30;99.90;;;;;;5030633;28;20285;-70
2022/12/05 09:15:18;;;;;;;18.10;8.83;;;5.30;99.90;;;;;;5030350;28;20307;-70
2022/12/05 09:17:44;;;;;;;11.90;8.63;;;5.40;99.90;;;;;;5030110;28;20665;-71
2022/12/05 09:20:12;;;;;;;14.83;9.30;;;5.40;99.90;;;;;;5029788;28;20182;-70
2022/12/05 09:22:39;;;;;;;17.17;10.63;;;5.40;99.90;;;;;;5030125;28;20411;-70
2022/12/05 09:25:05;;;;;;;17.10;10.90;;;5.40;99.90;;;;;;5030377;28;20882;-71
2022/12/05 09:27:31;;;;;;;18.87;10.00;;;5.50;99.90;;;;;;5030040;28;20400;-70
2022/12/05 09:29:56;;;;;;;14.63;9.70;;;5.40;99.90;;;;;;5030037;28;20482;-71
2022/12/05 09:32:22;;;;;;;17.70;9.07;;;5.50;99.90;;;;;;5029987;28;20300;-71
2022/12/05 09:34:47;;;;;;;14.40;8.50;;;5.60;99.90;;;;;;5030065;28;20269;-68
2022/12/05 09:37:13;;;;;;;17.00;9.70;;;5.60;99.90;;;;;;5029716;28;20181;-71
2022/12/05 09:39:38;;;;;;;13.80;8.90;;;5.70;99.90;;;;;;5029745;28;20185;-71
2022/12/05 09:42:07;;;;;;;13.50;8.70;;;5.70;99.90;;;;;;5029441;28;20253;-71
2022/12/05 09:44:54;;;;;;;9.30;7.37;;;5.80;99.90;;;;;;5030047;28;20205;-71
2022/12/05 09:47:22;;;;;;;13.60;8.43;;;5.80;99.90;;;;;;5030066;28;20456;-71
2022/12/05 09:50:03;;;;;;;13.60;9.30;;;5.90;99.90;;;;;;5029093;28;20417;-70
2022/12/05 09:52:36;;;;;;;12.60;8.30;;;5.90;99.90;;;;;;5030297;28;20461;-70
2022/12/05 09:55:12;;;;;;;11.63;7.17;;;5.90;99.90;;;;;;5030084;28;20406;-71
2022/12/05 09:57:52;;;;;;;9.57;7.30;;;5.90;99.90;;;;;;5030068;28;20444;-70
2022/12/05 10:00:18;;;;;;;13.80;8.20;;;5.90;99.90;;;;;;5029367;28;20742;-70
2022/12/05 10:02:49;;;;;;;12.73;8.43;;;5.90;99.90;;;;;;5029332;28;20437;-71
2022/12/05 10:05:38;;;;;;;12.23;7.47;;;6.00;99.90;;;;;;5029873;28;20186;-70
2022/12/05 10:08:39;;;;;;;8.83;7.73;;;6.00;99.90;;;;;;5029971;28;20411;-71
2022/12/05 10:11:18;;;;;;;9.03;6.70;;;6.00;99.90;;;;;;5028811;28;20435;-71
2022/12/05 10:14:28;;;;;;;10.07;6.90;;;6.00;99.90;;;;;;5011932;28;21001;-70
2022/12/05 10:16:57;;;;;;;10.40;7.30;;;6.00;99.90;;;;;;5029669;28;20507;-70
2022/12/05 10:19:36;;;;;;;13.40;8.77;;;6.00;99.90;;;;;;5029844;28;20437;-70
2022/12/05 10:22:25;;;;;;;12.53;7.50;;;6.00;99.90;;;;;;5028491;28;20433;-69
2022/12/05 10:24:54;;;;;;;11.13;7.80;;;6.00;99.90;;;;;;5029773;28;20508;-69
2022/12/05 10:27:31;;;;;;;14.43;8.77;;;6.00;99.90;;;;;;5029395;28;20418;-70
2022/12/05 10:30:01;;;;;;;15.53;9.70;;;6.00;99.90;;;;;;5029243;28;20421;-70
2022/12/05 10:32:43;;;;;;;10.93;8.63;;;5.90;99.90;;;;;;5028813;28;20507;-71
2022/12/05 10:35:23;;;;;;;13.63;8.97;;;6.00;99.90;;;;;;5029325;28;20406;-70
2022/12/05 10:37:52;;;;;;;15.20;8.70;;;6.00;99.90;;;;;;5029359;28;20388;-70
2022/12/05 10:40:19;;;;;;;13.10;9.00;;;6.00;99.90;;;;;;5028965;28;20455;-71
2022/12/05 10:42:46;;;;;;;13.27;9.10;;;6.10;99.90;;;;;;5029092;28;20434;-71
2022/12/05 10:45:17;;;;;;;16.60;9.87;;;6.20;99.90;;;;;;5029624;28;20919;-71
2022/12/05 10:47:42;;;;;;;16.80;8.50;;;6.30;99.90;;;;;;5029646;28;20406;-71
2022/12/05 10:50:34;;;;;;;13.10;8.60;;;6.50;99.90;;;;;;5031245;28;20425;-69
2022/12/05 10:53:02;;;;;;;16.27;10.00;;;6.70;99.90;;;;;;5032825;28;20209;-71
2022/12/05 10:55:43;;;;;;;15.03;8.70;;;7.00;99.90;;;;;;5032456;28;20404;-69
2022/12/05 10:58:16;;;;;;;13.23;8.47;;;7.10;99.90;;;;;;5032848;28;20372;-70
2022/12/05 11:00:47;;;;;;;12.37;8.63;;;7.30;99.90;;;;;;5032272;28;20425;-71
2022/12/05 11:03:28;;;;;;;13.67;9.20;;;7.30;99.90;;;;;;5032821;28;20593;-70
2022/12/05 11:05:59;;;;;;;14.20;9.53;;;7.40;99.90;;;;;;5032208;28;20524;-71
2022/12/05 11:08:31;;;;;;;12.07;8.80;;;7.50;99.90;;;;;;5032886;28;20404;-71
2022/12/05 11:11:02;;;;;;;9.47;7.57;;;7.60;99.90;;;;;;5031732;28;20399;-71
2022/12/05 11:13:28;;;;;;;8.97;8.03;;;7.50;99.90;;;;;;5032246;28;20389;-69
2022/12/05 11:15:53;;;;;;;10.13;8.33;;;7.50;99.90;;;;;;5032777;28;20416;-71
2022/12/05 11:18:32;;;;;;;14.20;9.43;;;7.50;99.90;;;;;;5032570;28;20314;-71
2022/12/05 11:21:12;;;;;;;14.80;9.13;;;7.40;99.90;;;;;;5031876;28;20195;-70
2022/12/05 11:23:38;;;;;;;11.10;8.30;;;7.50;99.90;;;;;;5032381;28;20844;-70
2022/12/05 11:26:33;;;;;;;12.00;8.00;;;7.50;99.90;;;;;;5032195;28;20412;-71
2022/12/05 11:28:59;;;;;;;10.70;8.20;;;7.50;99.90;;;;;;5032522;28;20435;-71
2022/12/05 11:31:27;;;;;;;12.07;8.27;;;7.50;99.90;;;;;;5031473;28;20786;-70
2022/12/05 11:34:01;;;;;;;9.30;7.13;;;7.60;99.90;;;;;;5014712;28;20208;-70
2022/12/05 11:36:45;;;;;;;12.07;6.90;;;7.70;99.90;;;;;;5031449;28;20428;-70
2022/12/05 11:39:12;;;;;;;9.90;7.23;;;7.70;99.90;;;;;;5031724;28;20906;-71
2022/12/05 11:42:01;;;;;;;11.97;9.10;;;7.80;99.90;;;;;;5031872;28;20444;-71
2022/12/05 11:44:33;;;;;;;13.17;7.67;;;7.90;99.90;;;;;;5032211;28;20505;-71
2022/12/05 11:47:16;;;;;;;11.50;7.87;;;8.00;99.90;;;;;;5031912;28;20402;-70
2022/12/05 11:50:02;;;;;;;11.07;7.33;;;8.20;99.90;;;;;;5031562;28;20398;-70
2022/12/05 11:52:50;;;;;;;9.80;6.73;;;8.30;99.90;;;;;;5031771;28;20793;-68
2022/12/05 11:55:20;;;;;;;8.47;6.77;;;8.40;99.90;;;;;;5031826;28;20420;-71
2022/12/05 11:58:02;;;;;;;9.43;6.57;;;8.50;99.90;;;;;;5031894;28;20484;-72
2022/12/05 12:00:54;;;;;;;10.30;7.00;;;8.50;99.90;;;;;;5030402;28;20503;-70
2022/12/05 12:03:48;;;;;;;7.83;6.27;;;8.60;99.90;;;;;;5031608;28;20467;-71
2022/12/05 12:06:50;;;;;;;10.33;7.37;;;8.60;99.90;;;;;;5031793;28;20821;-72
2022/12/05 12:09:42;;;;;;;7.57;5.60;;;8.60;99.90;;;;;;5031414;28;20406;-71
2022/12/05 12:12:30;;;;;;;12.60;7.30;;;8.50;99.90;;;;;;5030648;28;20681;-69
2022/12/05 12:15:12;;;;;;;11.30;7.20;;;8.60;99.90;;;;;;5030750;28;20416;-71
2022/12/05 12:17:55;;;;;;;10.90;8.00;;;8.40;99.90;;;;;;5031612;28;20419;-72
2022/12/05 12:20:37;;;;;;;10.40;6.93;;;8.40;99.90;;;;;;5030702;28;20424;-72
2022/12/05 12:23:17;;;;;;;9.87;6.83;;;8.30;99.90;;;;;;5013457;28;20458;-71
2022/12/05 12:25:54;;;;;;;6.27;5.30;;;8.30;99.90;;;;;;5031307;28;20389;-71
2022/12/05 12:28:28;;;;;;;7.80;7.03;;;8.30;99.90;;;;;;5030892;28;20830;-71
2022/12/05 12:31:28;;;;;;;8.33;6.30;;;8.20;99.90;;;;;;5031421;28;20410;-73
2022/12/05 12:34:15;;;;;;;11.27;6.67;;;8.10;99.90;;;;;;5031654;28;20549;-72
2022/12/05 12:37:00;;;;;;;8.63;6.30;;;8.10;99.90;;;;;;5050139;28;20486;-72
2022/12/05 12:39:37;;;;;;;9.77;6.50;;;8.00;99.90;;;;;;5050738;28;20899;-72
2022/12/05 12:42:22;;;;;;;10.30;5.07;;;8.00;99.90;;;;;;5050216;28;20495;-69
2022/12/05 12:45:12;;;;;;;6.53;5.93;;;8.10;99.90;;;;;;5050665;28;20461;-69
2022/12/05 12:48:07;;;;;;;8.13;6.07;;;8.10;99.90;;;;;;5050889;28;20461;-72
2022/12/05 12:50:37;;;;;;;8.90;6.00;;;8.20;99.90;;;;;;5050148;28;20958;-69
2022/12/05 12:53:08;;;;;;;10.63;6.97;;;8.10;99.90;;;;;;5050042;28;20413;-70
2022/12/05 12:55:53;;;;;;;12.27;7.30;;;8.00;99.90;;;;;;5050766;28;20464;-69
2022/12/05 12:58:50;;;;;;;9.80;6.30;;;8.00;99.90;;;;;;5050491;28;20399;-69
2022/12/05 13:01:48;;;;;;;10.60;6.70;;;8.00;99.90;;;;;;5049696;28;20774;-69
2022/12/05 13:04:21;;;;;;;8.43;6.60;;;8.10;99.90;;;;;;5049977;28;20475;-69
2022/12/05 13:06:50;;;;;;;10.63;7.20;;;8.00;99.90;;;;;;5050842;28;20390;-67
2022/12/05 13:09:28;;;;;;;8.20;6.80;;;8.00;99.90;;;;;;5050272;28;20397;-69
2022/12/05 13:11:58;;;;;;;6.87;5.37;;;8.00;99.90;;;;;;5048636;28;20537;-69
2022/12/05 13:14:26;;;;;;;13.87;6.67;;;8.00;99.90;;;;;;5050319;28;20841;-70
2022/12/05 13:16:53;;;;;;;11.80;6.80;;;8.00;99.90;;;;;;5050358;28;20930;-69
2022/12/05 13:19:36;;;;;;;11.27;7.77;;;8.00;99.90;;;;;;5050171;28;20424;-69
2022/12/05 13:22:04;;;;;;;8.47;6.73;;;7.90;99.90;;;;;;5031220;28;20444;-69
2022/12/05 13:24:30;;;;;;;7.27;6.57;;;7.90;99.90;;;;;;5050031;28;20457;-69
2022/12/05 13:27:01;;;;;;;6.83;5.90;;;7.80;99.90;;;;;;5050669;28;20783;-69
2022/12/05 13:29:38;;;;;;;10.77;6.30;;;7.80;99.90;;;;;;5050165;28;20217;-69
2022/12/05 13:32:05;;;;;;;9.83;7.13;;;7.80;99.90;;;;;;5049373;28;20527;-69
2022/12/05 13:34:34;;;;;;;8.60;7.10;;;7.70;99.90;;;;;;5050045;28;20755;-69
2022/12/05 13:42:41;;;;;;;7.67;6.37;;;7.70;99.90;;;;;;5049951;28;20432;-70
2022/12/05 13:45:10;;;;;;;6.67;5.20;;;7.70;99.90;;;;;;5049828;28;20423;-66
2022/12/05 13:47:54;;;;;;;6.23;5.50;;;7.60;99.90;;;;;;5050248;28;20866;-70
2022/12/05 13:50:32;;;;;;;6.00;5.37;;;7.50;99.90;;;;;;5048711;28;20478;-69
2022/12/05 13:53:04;;;;;;;12.37;6.30;;;7.50;99.90;;;;;;5049972;28;20838;-69
2022/12/05 13:55:34;;;;;;;9.33;5.10;;;7.50;99.90;;;;;;5049857;28;20872;-69
2022/12/05 13:58:21;;;;;;;6.90;5.90;;;7.50;99.90;;;;;;5049799;28;20561;-69
2022/12/05 14:00:48;;;;;;;7.30;5.53;;;7.40;99.90;;;;;;5031078;28;20918;-67
2022/12/05 14:03:36;;;;;;;8.33;6.20;;;7.30;99.90;;;;;;5049706;28;20460;-70
2022/12/05 14:06:03;;;;;;;7.47;6.17;;;7.30;99.90;;;;;;5049562;28;20438;-69
2022/12/05 14:08:33;;;;;;;8.63;6.10;;;7.30;99.90;;;;;;5049883;28;20446;-69
2022/12/05 14:11:00;;;;;;;8.67;7.23;;;7.20;99.90;;;;;;5049008;28;20437;-69
2022/12/05 14:13:29;;;;;;;10.97;7.33;;;7.20;99.90;;;;;;5048881;28;20418;-70
2022/12/05 14:16:24;;;;;;;7.53;6.73;;;7.20;99.90;;;;;;5049105;28;20465;-70
2022/12/05 14:18:57;;;;;;;8.70;7.07;;;7.10;99.90;;;;;;5049314;28;20492;-70
2022/12/05 14:21:55;;;;;;;9.47;7.80;;;7.00;99.90;;;;;;5048849;28;20438;-70
2022/12/05 14:24:48;;;;;;;10.47;7.03;;;7.00;99.90;;;;;;5052654;28;20453;-71
2022/12/05 14:27:17;;;;;;;12.07;8.57;;;6.90;99.90;;;;;;5053501;28;20952;-72
2022/12/05 14:30:02;;;;;;;19.93;15.80;;;6.90;99.90;;;;;;5053648;28;20418;-72
2022/12/05 14:32:35;;;;;;;19.57;13.90;;;6.90;99.90;;;;;;5052579;28;20963;-70
2022/12/05 14:35:14;;;;;;;18.03;13.33;;;6.80;99.90;;;;;;5052613;28;20972;-72
2022/12/05 14:37:52;;;;;;;26.17;22.20;;;6.70;99.90;;;;;;5053390;28;20419;-72
2022/12/05 14:40:32;;;;;;;19.20;11.83;;;6.60;99.90;;;;;;5052923;28;20447;-69
2022/12/05 14:43:05;;;;;;;18.30;13.57;;;6.60;99.90;;;;;;5053118;28;20462;-71
2022/12/05 14:45:40;;;;;;;18.70;11.00;;;6.60;99.90;;;;;;5034853;28;20423;-71
2022/12/05 14:48:12;;;;;;;19.90;11.60;;;6.60;99.90;;;;;;5052855;28;20568;-70
2022/12/05 14:50:43;;;;;;;18.93;11.20;;;6.60;99.90;;;;;;5052412;28;20379;-69